sensor_id;sensor_type;location;lat;lon;timestamp;pressure;altitude;pressure_sealevel;temperature;humidity
36304;BME280;22335;49.800;8.596;2023-05-25T00:02:06;101126.09;;;17.11;39.02
36304;BME280;22335;49.800;8.596;2023-05-25T00:08:50;101124.22;;;16.83;39.41
36304;BME280;22335;49.800;8.596;2023-05-25T00:15:37;101107.66;;;16.83;39.63
36304;BME280;22335;49.800;8.596;2023-05-25T00:22:20;101112.56;;;16.73;39.75
36304;BME280;22335;49.800;8.596;2023-05-25T00:29:04;101109.59;;;16.69;40.13
36304;BME280;22335;49.800;8.596;2023-05-25T00:35:49;101106.84;;;16.69;40.43
36304;BME280;22335;49.800;8.596;2023-05-25T00:42:32;101117.38;;;16.67;40.36
36304;BME280;22335;49.800;8.596;2023-05-25T00:49:18;101085.00;;;16.45;40.67
36304;BME280;22335;49.800;8.596;2023-05-25T00:56:10;101085.00;;;16.18;41.36
36304;BME280;22335;49.800;8.596;2023-05-25T01:02:58;101047.38;;;15.80;41.51
36304;BME280;22335;49.800;8.596;2023-05-25T01:09:43;101057.69;;;15.75;41.67
36304;BME280;22335;49.800;8.596;2023-05-25T01:16:28;101119.84;;;16.00;42.23
36304;BME280;22335;49.800;8.596;2023-05-25T01:23:16;101128.19;;;15.81;42.49
36304;BME280;22335;49.800;8.596;2023-05-25T01:30:01;101124.72;;;15.56;43.20
36304;BME280;22335;49.800;8.596;2023-05-25T01:36:46;101115.69;;;15.37;43.40
36304;BME280;22335;49.800;8.596;2023-05-25T01:43:32;101121.00;;;15.33;43.70
36304;BME280;22335;49.800;8.596;2023-05-25T01:50:21;101134.78;;;15.14;44.42
36304;BME280;22335;49.800;8.596;2023-05-25T01:57:11;101142.38;;;15.04;44.75
36304;BME280;22335;49.800;8.596;2023-05-25T02:03:59;101103.88;;;14.80;44.72
36304;BME280;22335;49.800;8.596;2023-05-25T02:10:45;101150.34;;;15.24;44.40
36304;BME280;22335;49.800;8.596;2023-05-25T02:17:29;101138.13;;;15.30;44.26
36304;BME280;22335;49.800;8.596;2023-05-25T02:24:14;101130.56;;;15.36;44.44
36304;BME280;22335;49.800;8.596;2023-05-25T02:30:57;101099.47;;;15.16;44.55
36304;BME280;22335;49.800;8.596;2023-05-25T02:37:41;101092.13;;;15.12;44.78
36304;BME280;22335;49.800;8.596;2023-05-25T02:44:26;101130.88;;;15.34;44.69
36304;BME280;22335;49.800;8.596;2023-05-25T03:06:13;101121.94;;;15.42;45.05
36304;BME280;22335;49.800;8.596;2023-05-25T03:12:58;101131.66;;;15.54;43.88
36304;BME280;22335;49.800;8.596;2023-05-25T03:19:42;101117.88;;;15.21;44.51
36304;BME280;22335;49.800;8.596;2023-05-25T03:26:27;101101.47;;;15.11;44.94
36304;BME280;22335;49.800;8.596;2023-05-25T03:33:11;101153.47;;;15.17;45.23
36304;BME280;22335;49.800;8.596;2023-05-25T03:39:59;101151.53;;;15.18;45.47
36304;BME280;22335;49.800;8.596;2023-05-25T03:46:46;101149.75;;;15.27;45.50
36304;BME280;22335;49.800;8.596;2023-05-25T03:53:30;101159.47;;;15.38;45.40
36304;BME280;22335;49.800;8.596;2023-05-25T04:00:14;101150.41;;;15.38;45.33
36304;BME280;22335;49.800;8.596;2023-05-25T04:06:59;101164.72;;;15.40;45.43
36304;BME280;22335;49.800;8.596;2023-05-25T04:13:43;101182.28;;;15.44;45.57
36304;BME280;22335;49.800;8.596;2023-05-25T04:20:27;101191.94;;;15.41;45.66
36304;BME280;22335;49.800;8.596;2023-05-25T04:27:12;101186.66;;;15.45;45.90
36304;BME280;22335;49.800;8.596;2023-05-25T04:33:56;101198.53;;;15.45;45.59
36304;BME280;22335;49.800;8.596;2023-05-25T04:40:43;101203.66;;;15.52;45.73
36304;BME280;22335;49.800;8.596;2023-05-25T04:47:29;101199.63;;;15.44;45.93
36304;BME280;22335;49.800;8.596;2023-05-25T04:54:14;101208.22;;;15.43;46.10
36304;BME280;22335;49.800;8.596;2023-05-25T05:00:59;101222.00;;;15.43;45.98
36304;BME280;22335;49.800;8.596;2023-05-25T05:07:44;101158.25;;;15.12;46.29
36304;BME280;22335;49.800;8.596;2023-05-25T05:14:28;101224.94;;;15.65;46.24
36304;BME280;22335;49.800;8.596;2023-05-25T05:21:11;101222.72;;;15.86;46.12
36304;BME280;22335;49.800;8.596;2023-05-25T05:27:56;101236.88;;;15.99;46.01
36304;BME280;22335;49.800;8.596;2023-05-25T05:34:47;101250.13;;;15.97;46.28
36304;BME280;22335;49.800;8.596;2023-05-25T05:41:45;101235.81;;;15.95;46.35
36304;BME280;22335;49.800;8.596;2023-05-25T05:48:30;101244.94;;;15.95;46.21
36304;BME280;22335;49.800;8.596;2023-05-25T05:55:13;101218.81;;;15.87;46.07
36304;BME280;22335;49.800;8.596;2023-05-25T06:01:58;101248.38;;;16.33;45.82
36304;BME280;22335;49.800;8.596;2023-05-25T06:08:43;101252.50;;;16.50;45.63
36304;BME280;22335;49.800;8.596;2023-05-25T06:15:27;101268.78;;;16.51;45.63
36304;BME280;22335;49.800;8.596;2023-05-25T06:22:13;101268.03;;;16.59;45.59
36304;BME280;22335;49.800;8.596;2023-05-25T06:28:58;101154.69;;;16.09;45.34
36304;BME280;22335;49.800;8.596;2023-05-25T06:35:42;101255.00;;;16.93;45.08
36304;BME280;22335;49.800;8.596;2023-05-25T06:42:28;101098.91;;;16.12;44.66
36304;BME280;22335;49.800;8.596;2023-05-25T06:49:13;101251.25;;;17.39;44.30
36304;BME280;22335;49.800;8.596;2023-05-25T06:55:56;101262.03;;;17.63;43.89
36304;BME280;22335;49.800;8.596;2023-05-25T07:02:40;101267.44;;;17.82;43.43
36304;BME280;22335;49.800;8.596;2023-05-25T07:09:27;101264.97;;;18.03;43.16
36304;BME280;22335;49.800;8.596;2023-05-25T07:16:10;101256.81;;;18.29;43.03
36304;BME280;22335;49.800;8.596;2023-05-25T07:22:54;101260.50;;;18.47;42.41
36304;BME280;22335;49.800;8.596;2023-05-25T07:29:39;101240.88;;;18.65;41.92
36304;BME280;22335;49.800;8.596;2023-05-25T07:36:23;101212.94;;;18.53;41.86
36304;BME280;22335;49.800;8.596;2023-05-25T07:43:07;101251.25;;;18.91;41.38
36304;BME280;22335;49.800;8.596;2023-05-25T07:49:52;101190.72;;;18.76;41.15
36304;BME280;22335;49.800;8.596;2023-05-25T07:56:36;101263.25;;;19.26;40.77
36304;BME280;22335;49.800;8.596;2023-05-25T08:03:19;101257.53;;;19.31;40.93
36304;BME280;22335;49.800;8.596;2023-05-25T08:10:09;101250.22;;;19.53;40.77
36304;BME280;22335;49.800;8.596;2023-05-25T08:16:52;101250.91;;;19.67;40.76
36304;BME280;22335;49.800;8.596;2023-05-25T08:23:36;101251.72;;;19.85;40.62
36304;BME280;22335;49.800;8.596;2023-05-25T08:30:24;101185.41;;;19.66;40.70
36304;BME280;22335;49.800;8.596;2023-05-25T08:37:08;101257.06;;;20.16;40.30
36304;BME280;22335;49.800;8.596;2023-05-25T08:43:51;101251.28;;;20.30;40.25
36304;BME280;22335;49.800;8.596;2023-05-25T08:50:37;101247.47;;;20.43;39.70
36304;BME280;22335;49.800;8.596;2023-05-25T08:57:26;101247.75;;;20.68;39.46
36304;BME280;22335;49.800;8.596;2023-05-25T09:04:14;101180.28;;;20.50;39.42
36304;BME280;22335;49.800;8.596;2023-05-25T09:11:03;101236.06;;;21.13;39.06
36304;BME280;22335;49.800;8.596;2023-05-25T09:17:47;101196.56;;;20.99;38.80
36304;BME280;22335;49.800;8.596;2023-05-25T09:24:33;101205.47;;;21.13;37.78
36304;BME280;22335;49.800;8.596;2023-05-25T09:31:17;101250.09;;;21.46;37.73
36304;BME280;22335;49.800;8.596;2023-05-25T09:38:01;101237.53;;;21.61;37.73
36304;BME280;22335;49.800;8.596;2023-05-25T09:44:45;101215.53;;;21.68;37.03
36304;BME280;22335;49.800;8.596;2023-05-25T09:51:30;101210.44;;;22.03;36.92
36304;BME280;22335;49.800;8.596;2023-05-25T09:58:14;101251.06;;;22.38;36.46
36304;BME280;22335;49.800;8.596;2023-05-25T10:04:57;101259.06;;;22.51;35.95
36304;BME280;22335;49.800;8.596;2023-05-25T10:11:43;101254.34;;;22.64;35.57
36304;BME280;22335;49.800;8.596;2023-05-25T10:18:27;101249.22;;;22.66;35.20
36304;BME280;22335;49.800;8.596;2023-05-25T10:25:15;101262.84;;;22.92;34.45
36304;BME280;22335;49.800;8.596;2023-05-25T10:32:06;101246.22;;;23.20;34.47
36304;BME280;22335;49.800;8.596;2023-05-25T10:38:53;101247.28;;;23.56;34.16
36304;BME280;22335;49.800;8.596;2023-05-25T10:45:36;101247.94;;;23.78;33.39
36304;BME280;22335;49.800;8.596;2023-05-25T10:52:27;101235.09;;;23.89;32.78
36304;BME280;22335;49.800;8.596;2023-05-25T10:59:11;101171.63;;;23.61;32.97
36304;BME280;22335;49.800;8.596;2023-05-25T11:05:55;101210.63;;;24.14;32.43
36304;BME280;22335;49.800;8.596;2023-05-25T11:12:40;101207.22;;;24.36;32.82
36304;BME280;22335;49.800;8.596;2023-05-25T11:19:23;101172.59;;;24.25;32.99
36304;BME280;22335;49.800;8.596;2023-05-25T11:26:19;101204.31;;;24.80;33.16
36304;BME280;22335;49.800;8.596;2023-05-25T11:33:04;101164.78;;;24.82;32.55
36304;BME280;22335;49.800;8.596;2023-05-25T11:39:50;101201.78;;;25.26;32.21
36304;BME280;22335;49.800;8.596;2023-05-25T11:46:34;101202.25;;;25.48;32.44
36304;BME280;22335;49.800;8.596;2023-05-25T11:53:20;101172.56;;;25.43;32.30
36304;BME280;22335;49.800;8.596;2023-05-25T12:00:04;101199.69;;;25.59;32.02
36304;BME280;22335;49.800;8.596;2023-05-25T12:07:00;101173.88;;;25.49;31.82
36304;BME280;22335;49.800;8.596;2023-05-25T12:13:47;101167.63;;;25.79;31.25
36304;BME280;22335;49.800;8.596;2023-05-25T12:20:33;101121.81;;;25.68;30.44
36304;BME280;22335;49.800;8.596;2023-05-25T12:27:19;101130.84;;;25.81;30.16
36304;BME280;22335;49.800;8.596;2023-05-25T12:34:07;101158.63;;;26.09;29.39
36304;BME280;22335;49.800;8.596;2023-05-25T12:41:03;101156.69;;;26.13;29.41
36304;BME280;22335;49.800;8.596;2023-05-25T12:47:47;101153.78;;;26.32;29.02
36304;BME280;22335;49.800;8.596;2023-05-25T12:54:40;101146.31;;;26.40;28.59
36304;BME280;22335;49.800;8.596;2023-05-25T13:01:25;101136.53;;;26.53;28.32
36304;BME280;22335;49.800;8.596;2023-05-25T13:08:08;101134.59;;;26.57;28.08
36304;BME280;22335;49.800;8.596;2023-05-25T13:14:53;101134.22;;;26.85;27.89
36304;BME280;22335;49.800;8.596;2023-05-25T13:21:36;101096.28;;;26.68;27.32
36304;BME280;22335;49.800;8.596;2023-05-25T13:28:20;101122.75;;;26.98;26.85
36304;BME280;22335;49.800;8.596;2023-05-25T13:35:06;101116.94;;;27.13;27.17
36304;BME280;22335;49.800;8.596;2023-05-25T13:41:52;101115.41;;;27.16;27.25
36304;BME280;22335;49.800;8.596;2023-05-25T13:48:36;101113.59;;;27.34;27.04
36304;BME280;22335;49.800;8.596;2023-05-25T13:55:29;101114.44;;;27.39;27.45
36304;BME280;22335;49.800;8.596;2023-05-25T14:02:13;101113.69;;;27.42;27.82
36304;BME280;22335;49.800;8.596;2023-05-25T14:08:58;101103.78;;;27.55;28.26
36304;BME280;22335;49.800;8.596;2023-05-25T14:15:43;101089.06;;;27.31;28.73
36304;BME280;22335;49.800;8.596;2023-05-25T14:22:27;101098.91;;;27.48;28.19
36304;BME280;22335;49.800;8.596;2023-05-25T14:29:11;101096.91;;;27.49;28.51
36304;BME280;22335;49.800;8.596;2023-05-25T14:35:55;101088.53;;;27.56;28.41
36304;BME280;22335;49.800;8.596;2023-05-25T14:42:39;101096.91;;;27.49;28.79
36304;BME280;22335;49.800;8.596;2023-05-25T14:49:22;101085.31;;;27.54;28.90
36304;BME280;22335;49.800;8.596;2023-05-25T14:56:09;101092.97;;;27.57;28.90
36304;BME280;22335;49.800;8.596;2023-05-25T15:02:55;101073.91;;;27.40;29.21
36304;BME280;22335;49.800;8.596;2023-05-25T15:09:38;101096.09;;;27.48;29.34
36304;BME280;22335;49.800;8.596;2023-05-25T15:16:24;101093.28;;;27.48;29.54
36304;BME280;22335;49.800;8.596;2023-05-25T15:23:07;101091.28;;;27.49;29.67
36304;BME280;22335;49.800;8.596;2023-05-25T15:29:50;101097.06;;;27.63;29.66
36304;BME280;22335;49.800;8.596;2023-05-25T15:36:36;101090.94;;;27.54;29.91
36304;BME280;22335;49.800;8.596;2023-05-25T15:43:19;101060.28;;;27.38;29.87
36304;BME280;22335;49.800;8.596;2023-05-25T15:50:03;101087.66;;;27.48;30.08
36304;BME280;22335;49.800;8.596;2023-05-25T15:56:49;101074.00;;;27.47;29.91
36304;BME280;22335;49.800;8.596;2023-05-25T16:03:32;101087.22;;;27.46;30.22
36304;BME280;22335;49.800;8.596;2023-05-25T16:10:15;101085.22;;;27.47;30.30
36304;BME280;22335;49.800;8.596;2023-05-25T16:17:00;101087.69;;;27.52;30.48
36304;BME280;22335;49.800;8.596;2023-05-25T16:23:44;101086.47;;;27.49;30.34
36304;BME280;22335;49.800;8.596;2023-05-25T16:30:27;101092.06;;;27.46;30.39
36304;BME280;22335;49.800;8.596;2023-05-25T16:37:12;101091.97;;;27.39;30.49
36304;BME280;22335;49.800;8.596;2023-05-25T16:43:56;101112.53;;;27.46;30.39
36304;BME280;22335;49.800;8.596;2023-05-25T16:50:39;101055.91;;;27.10;30.52
36304;BME280;22335;49.800;8.596;2023-05-25T16:57:24;101070.88;;;27.18;30.56
36304;BME280;22335;49.800;8.596;2023-05-25T17:04:07;101099.94;;;27.33;30.69
36304;BME280;22335;49.800;8.596;2023-05-25T17:10:51;101097.16;;;27.36;30.74
36304;BME280;22335;49.800;8.596;2023-05-25T17:17:36;101097.72;;;27.16;30.84
36304;BME280;22335;49.800;8.596;2023-05-25T17:24:19;101103.63;;;27.07;30.62
36304;BME280;22335;49.800;8.596;2023-05-25T17:31:03;101097.53;;;27.01;31.13
36304;BME280;22335;49.800;8.596;2023-05-25T17:37:48;101103.41;;;26.93;30.83
36304;BME280;22335;49.800;8.596;2023-05-25T17:44:31;101108.06;;;26.81;31.15
36304;BME280;22335;49.800;8.596;2023-05-25T17:51:15;101108.75;;;26.71;31.01
36304;BME280;22335;49.800;8.596;2023-05-25T17:58:00;101108.66;;;26.64;31.36
36304;BME280;22335;49.800;8.596;2023-05-25T18:04:45;101104.84;;;26.79;30.87
36304;BME280;22335;49.800;8.596;2023-05-25T18:11:28;101117.66;;;26.50;31.16
36304;BME280;22335;49.800;8.596;2023-05-25T18:18:15;101114.47;;;26.52;30.99
36304;BME280;22335;49.800;8.596;2023-05-25T18:25:01;101119.28;;;26.28;31.18
36304;BME280;22335;49.800;8.596;2023-05-25T18:31:45;101119.88;;;26.14;31.38
36304;BME280;22335;49.800;8.596;2023-05-25T18:38:30;101124.13;;;26.05;31.12
36304;BME280;22335;49.800;8.596;2023-05-25T18:45:14;101143.47;;;25.90;30.97
36304;BME280;22335;49.800;8.596;2023-05-25T18:51:57;101114.09;;;25.61;31.18
36304;BME280;22335;49.800;8.596;2023-05-25T18:58:43;101133.25;;;25.59;31.31
36304;BME280;22335;49.800;8.596;2023-05-25T19:05:26;101146.81;;;25.57;31.29
36304;BME280;22335;49.800;8.596;2023-05-25T19:12:09;101153.53;;;25.52;31.60
36304;BME280;22335;49.800;8.596;2023-05-25T19:18:54;101138.34;;;25.53;32.01
36304;BME280;22335;49.800;8.596;2023-05-25T19:25:38;101163.63;;;25.57;32.05
36304;BME280;22335;49.800;8.596;2023-05-25T19:32:21;101176.03;;;25.37;32.30
36304;BME280;22335;49.800;8.596;2023-05-25T19:39:09;101175.47;;;25.12;32.99
36304;BME280;22335;49.800;8.596;2023-05-25T19:45:52;101190.63;;;24.75;33.27
36304;BME280;22335;49.800;8.596;2023-05-25T19:52:36;101198.84;;;24.52;33.43
36304;BME280;22335;49.800;8.596;2023-05-25T19:59:21;101159.84;;;23.96;34.25
36304;BME280;22335;49.800;8.596;2023-05-25T20:06:08;101184.81;;;23.89;34.21
36304;BME280;22335;49.800;8.596;2023-05-25T20:12:51;101213.47;;;23.86;34.85
36304;BME280;22335;49.800;8.596;2023-05-25T20:19:38;101212.81;;;23.64;35.07
36304;BME280;22335;49.800;8.596;2023-05-25T20:26:23;101214.38;;;23.50;35.38
36304;BME280;22335;49.800;8.596;2023-05-25T20:33:08;101222.69;;;23.34;35.82
36304;BME280;22335;49.800;8.596;2023-05-25T20:39:52;101219.22;;;23.24;35.81
36304;BME280;22335;49.800;8.596;2023-05-25T20:46:38;101238.44;;;23.14;36.10
36304;BME280;22335;49.800;8.596;2023-05-25T20:53:22;101190.22;;;22.64;36.58
36304;BME280;22335;49.800;8.596;2023-05-25T21:00:08;101185.91;;;22.42;36.95
36304;BME280;22335;49.800;8.596;2023-05-25T21:06:53;101224.59;;;22.68;36.75
36304;BME280;22335;49.800;8.596;2023-05-25T21:13:37;101249.91;;;22.63;37.12
36304;BME280;22335;49.800;8.596;2023-05-25T21:20:22;101249.69;;;22.56;37.23
36304;BME280;22335;49.800;8.596;2023-05-25T21:27:07;101261.97;;;22.30;37.61
36304;BME280;22335;49.800;8.596;2023-05-25T21:33:50;101247.06;;;21.93;37.87
36304;BME280;22335;49.800;8.596;2023-05-25T21:40:35;101278.22;;;22.07;38.03
36304;BME280;22335;49.800;8.596;2023-05-25T21:47:19;101289.38;;;22.07;37.99
36304;BME280;22335;49.800;8.596;2023-05-25T21:54:03;101289.78;;;21.97;38.07
36304;BME280;22335;49.800;8.596;2023-05-25T22:00:50;101292.53;;;21.85;38.31
36304;BME280;22335;49.800;8.596;2023-05-25T22:07:35;101287.25;;;21.71;38.39
36304;BME280;22335;49.800;8.596;2023-05-25T22:14:18;101295.59;;;21.50;38.66
36304;BME280;22335;49.800;8.596;2023-05-25T22:21:03;101291.44;;;21.35;39.04
36304;BME280;22335;49.800;8.596;2023-05-25T22:27:46;101290.91;;;21.33;38.82
36304;BME280;22335;49.800;8.596;2023-05-25T22:34:30;101302.63;;;21.18;39.17
36304;BME280;22335;49.800;8.596;2023-05-25T22:41:16;101294.91;;;20.94;39.60
36304;BME280;22335;49.800;8.596;2023-05-25T22:47:59;101301.88;;;20.70;40.02
36304;BME280;22335;49.800;8.596;2023-05-25T22:54:43;101312.69;;;20.72;39.86
36304;BME280;22335;49.800;8.596;2023-05-25T23:01:28;101312.69;;;20.63;40.22
36304;BME280;22335;49.800;8.596;2023-05-25T23:08:12;101317.75;;;20.61;40.08
36304;BME280;22335;49.800;8.596;2023-05-25T23:14:55;101314.19;;;20.52;40.29
36304;BME280;22335;49.800;8.596;2023-05-25T23:21:41;101230.94;;;19.91;40.62
36304;BME280;22335;49.800;8.596;2023-05-25T23:28:25;101295.09;;;20.33;40.31
36304;BME280;22335;49.800;8.596;2023-05-25T23:35:08;101297.34;;;20.40;40.36
36304;BME280;22335;49.800;8.596;2023-05-25T23:41:53;101323.03;;;20.54;40.57
36304;BME280;22335;49.800;8.596;2023-05-25T23:48:37;101328.25;;;20.56;40.41
36304;BME280;22335;49.800;8.596;2023-05-25T23:55:21;101330.56;;;20.54;40.40
